Horizon Pacific — WSRL — position and weather

sailwx.info

Track history (hours):
 
Tides and Currents Weather Stations Pressure Air Temp Water Temp Dewpoint Dewpoint Depression Visibility Wind Speed Wind Dir Waves Ship Positions

Horizon Pacific

Owner: Marine Transport Management, Inc, Jacksonville, FL. More information available from US FCC via Universal Licensing System and Coast Guard Vessel Documentation Center.

Last reported at 2017-Dec-11 12:00 UTC. Time now 2017-Dec-12 14:22 UTC.
Position N 28°30' W 134°30'.

Type: Cargo ship. MMSI: 366799000.

Wind from 180 at 15 knots

Barometer 1019.3 mb
Air temperature 18.9 ° C
Visibility: greater than 10.8 NM
Dewpoint 17.1 ° C
Water temperature 20.9 ° C

Date/timePositionNaut miles runAvg speedWind from/ knotsBaromVisibWave heightAir tempDewpointWater temp
2017-Dec-11 12:00N 28°30' W 134°30'25020.9 180 / 151019.310.8 18.917.120.9
2017-Dec-11 00:00N 29°54' W 130°00'30120.9 140 / 101019.410.8 16.710.718.4
2017-Dec-10 09:33N 31°37' W 124°30'121.4
2017-Dec-10 09:29N 31°38' W 124°29'1021.8
2017-Dec-10 09:00N 31°41' W 124°17'1121.4
2017-Dec-10 08:30N 31°45' W 124°05'2621.6
2017-Dec-10 07:17N 31°53' W 123°36'621.6
2017-Dec-10 07:00N 31°55' W 123°29'3821.5
2017-Dec-10 05:13N 32°08' W 122°47'1821.2
2017-Dec-10 04:21N 32°14' W 122°26'721.0
2017-Dec-10 04:00N 32°17' W 122°18'1121.1
2017-Dec-10 03:30N 32°20' W 122°07'1121.2
2017-Dec-10 03:00N 32°24' W 121°55'1121.0
2017-Dec-10 02:30N 32°27' W 121°43'1120.6
2017-Dec-10 02:00N 32°31' W 121°31'2620.9
2017-Dec-10 00:46N 32°39' W 121°03'621.5
2017-Dec-10 00:30N 32°41' W 120°56'1223.2
2017-Dec-10 00:00N 32°42' W 120°42'3710.1 360 / 21020.310.8 15.610.317.8
2017-Dec-09 23:59N 32°45' W 120°43'1021.3
2017-Dec-09 23:30N 32°48' W 120°32'1321.3
2017-Dec-09 22:54N 32°52' W 120°17'921.3
2017-Dec-09 22:29N 32°55' W 120°07'1021.1
2017-Dec-09 22:00N 32°59' W 119°56'1020.7
2017-Dec-09 21:30N 33°02' W 119°45'1020.9
2017-Dec-09 21:00N 33°06' W 119°33'1121.4
2017-Dec-09 20:30N 33°10' W 119°21'1121.7
2017-Dec-09 20:00N 33°16' W 119°10'1121.8
2017-Dec-09 19:30N 33°21' W 118°59'1121.3
2017-Dec-09 19:00N 33°26' W 118°48'1121.4
2017-Dec-09 18:30N 33°32' W 118°37'1020.9
2017-Dec-09 18:00N 33°37' W 118°26'816.2
2017-Dec-09 17:30N 33°39' W 118°16'4 7.3
2017-Dec-09 17:00N 33°43' W 118°16'3 0.1
2017-Dec-07 23:05N 33°41' W 118°14'1410.8
2017-Dec-07 21:47N 33°41' W 118°31'519.3
2017-Dec-07 21:30N 33°44' W 118°37'1020.6
2017-Dec-07 21:00N 33°49' W 118°48'1321.5
2017-Dec-07 20:25N 33°55' W 119°01'921.8
2017-Dec-07 20:00N 33°60' W 119°11'1020.2
2017-Dec-07 19:30N 34°04' W 119°22'1019.9
2017-Dec-07 18:59N 34°06' W 119°34'1020.2
2017-Dec-07 18:29N 34°09' W 119°45'1220.1
2017-Dec-07 17:52N 34°12' W 119°60'720.4
2017-Dec-07 17:30N 34°14' W 120°09'1020.5
2017-Dec-07 17:00N 34°17' W 120°21'1020.3
2017-Dec-07 16:30N 34°20' W 120°32'1020.2
2017-Dec-07 16:00N 34°22' W 120°44'1120.4
2017-Dec-07 15:29N 34°25' W 120°57'1020.9
2017-Dec-07 15:00N 34°33' W 121°03'1021.0
2017-Dec-07 14:30N 34°42' W 121°10'1020.6
2017-Dec-07 14:00N 34°51' W 121°17'1021.0
2017-Dec-07 13:30N 34°60' W 121°23'1020.9
2017-Dec-07 13:00N 35°09' W 121°30'1020.6
2017-Dec-07 12:30N 35°18' W 121°37'1020.7
2017-Dec-07 12:00N 35°26' W 121°43'1020.8
2017-Dec-07 11:30N 35°35' W 121°50'1020.8
2017-Dec-07 11:00N 35°44' W 121°56'1020.8
2017-Dec-07 10:30N 35°53' W 122°03'1020.6
2017-Dec-07 10:00N 36°02' W 122°09'1021.0
2017-Dec-07 09:30N 36°12' W 122°15'1021.0
2017-Dec-07 09:00N 36°21' W 122°20'1121.0
2017-Dec-07 08:30N 36°31' W 122°24'1121.1
2017-Dec-07 08:00N 36°41' W 122°28'1121.4
2017-Dec-07 07:30N 36°51' W 122°32'1121.6
2017-Dec-07 07:00N 37°02' W 122°36'1121.0
2017-Dec-07 06:30N 37°12' W 122°40'1121.1
2017-Dec-07 06:00N 37°22' W 122°44'1121.5
2017-Dec-07 05:30N 37°33' W 122°43'1020.7
2017-Dec-07 05:00N 37°43' W 122°41'612.2
2017-Dec-07 04:30N 37°47' W 122°35'917.4
2017-Dec-07 04:00N 37°50' W 122°25'510.9
2017-Dec-07 03:30N 37°48' W 122°19'1 2.6
2017-Dec-07 03:00N 37°48' W 122°17'1 1.8
2017-Dec-07 02:30N 37°48' W 122°19'0 0.0
2017-Dec-07 02:00N 37°48' W 122°19'0 0.0
2017-Dec-07 01:30N 37°48' W 122°19'0 0.0
2017-Dec-07 01:00N 37°48' W 122°19'0 0.0
2017-Dec-07 00:30N 37°48' W 122°19'0 0.0
2017-Dec-07 00:00N 37°48' W 122°19'0 0.0
2017-Dec-06 23:30N 37°48' W 122°19'0 0.0
2017-Dec-06 23:00N 37°48' W 122°19'0 0.0
2017-Dec-06 22:30N 37°48' W 122°19'0 0.0
2017-Dec-06 22:00N 37°48' W 122°19'0 0.0
2017-Dec-06 21:30N 37°48' W 122°19'0 0.0
2017-Dec-06 21:00N 37°48' W 122°19'206 9.8
2017-Dec-06 00:00N 36°30' W 126°18'47119.6 060 / 61023.510.8 15.610.315.2
2017-Dec-05 00:00N 33°24' W 135°06'15118.9 120 / 251021.310.8 14.410.229.2
2017-Dec-04 16:00N 32°18' W 137°48'8020.0 090 / 331019.010.8 17.812.821.1
2017-Dec-04 12:00N 31°42' W 139°12'37217.7 080 / 251018.510.8 16.712.617.2
2017-Dec-03 15:00N 28°36' W 145°24'4916.2 020 / 351014.310.8 17.814.922.8
2017-Dec-03 12:00N 28°12' W 146°12'20617.2 010 / 351015.010.8
2017-Dec-03 00:00N 26°24' W 149°30'11318.8 030 / 301018.010.8 21.111.222.5
2017-Dec-02 18:00N 25°18' W 151°12'9816.3 060 / 261020.010.8 21.111.224.4
2017-Dec-02 12:00N 24°24' W 152°42'11919.8 060 / 331017.510.8 20.015.322.1
2017-Dec-02 06:00N 23°18' W 154°30'10217.1 060 / 301019.010.8 22.218.726.1
2017-Dec-02 00:00N 22°18' W 156°00'   070 / 231015.510.8 23.319.121.2
Track history (hours):
 
Tides and Currents Weather Stations Pressure Air Temp Water Temp Dewpoint Dewpoint Depression Visibility Wind Speed Wind Dir Waves Ship Positions

Horizon Pacific

Owner: Marine Transport Management, Inc, Jacksonville, FL. More information available from US FCC via Universal Licensing System and Coast Guard Vessel Documentation Center.

Last reported at 2017-Dec-11 12:00 UTC. Time now 2017-Dec-12 14:22 UTC.
Position N 28°30' W 134°30'.

Type: Cargo ship. MMSI: 366799000.

Wind from 180 at 15 knots

Barometer 1019.3 mb
Air temperature 18.9 ° C
Visibility: greater than 10.8 NM
Dewpoint 17.1 ° C
Water temperature 20.9 ° C

Date/timePositionNaut miles runAvg speedWind from/ knotsBaromVisibWave heightAir tempDewpointWater temp
2017-Dec-11 12:00N 28°30' W 134°30'25020.9 180 / 151019.310.8 18.917.120.9
2017-Dec-11 00:00N 29°54' W 130°00'30120.9 140 / 101019.410.8 16.710.718.4
2017-Dec-10 09:33N 31°37' W 124°30'121.4
2017-Dec-10 09:29N 31°38' W 124°29'1021.8
2017-Dec-10 09:00N 31°41' W 124°17'1121.4
2017-Dec-10 08:30N 31°45' W 124°05'2621.6
2017-Dec-10 07:17N 31°53' W 123°36'621.6
2017-Dec-10 07:00N 31°55' W 123°29'3821.5
2017-Dec-10 05:13N 32°08' W 122°47'1821.2
2017-Dec-10 04:21N 32°14' W 122°26'721.0
2017-Dec-10 04:00N 32°17' W 122°18'1121.1
2017-Dec-10 03:30N 32°20' W 122°07'1121.2
2017-Dec-10 03:00N 32°24' W 121°55'1121.0
2017-Dec-10 02:30N 32°27' W 121°43'1120.6
2017-Dec-10 02:00N 32°31' W 121°31'2620.9
2017-Dec-10 00:46N 32°39' W 121°03'621.5
2017-Dec-10 00:30N 32°41' W 120°56'1223.2
2017-Dec-10 00:00N 32°42' W 120°42'3710.1 360 / 21020.310.8 15.610.317.8
2017-Dec-09 23:59N 32°45' W 120°43'1021.3
2017-Dec-09 23:30N 32°48' W 120°32'1321.3
2017-Dec-09 22:54N 32°52' W 120°17'921.3
2017-Dec-09 22:29N 32°55' W 120°07'1021.1
2017-Dec-09 22:00N 32°59' W 119°56'1020.7
2017-Dec-09 21:30N 33°02' W 119°45'1020.9
2017-Dec-09 21:00N 33°06' W 119°33'1121.4
2017-Dec-09 20:30N 33°10' W 119°21'1121.7
2017-Dec-09 20:00N 33°16' W 119°10'1121.8
2017-Dec-09 19:30N 33°21' W 118°59'1121.3
2017-Dec-09 19:00N 33°26' W 118°48'1121.4
2017-Dec-09 18:30N 33°32' W 118°37'1020.9
2017-Dec-09 18:00N 33°37' W 118°26'816.2
2017-Dec-09 17:30N 33°39' W 118°16'4 7.3
2017-Dec-09 17:00N 33°43' W 118°16'3 0.1
2017-Dec-07 23:05N 33°41' W 118°14'1410.8
2017-Dec-07 21:47N 33°41' W 118°31'519.3
2017-Dec-07 21:30N 33°44' W 118°37'1020.6
2017-Dec-07 21:00N 33°49' W 118°48'1321.5
2017-Dec-07 20:25N 33°55' W 119°01'921.8
2017-Dec-07 20:00N 33°60' W 119°11'1020.2
2017-Dec-07 19:30N 34°04' W 119°22'1019.9
2017-Dec-07 18:59N 34°06' W 119°34'1020.2
2017-Dec-07 18:29N 34°09' W 119°45'1220.1
2017-Dec-07 17:52N 34°12' W 119°60'720.4
2017-Dec-07 17:30N 34°14' W 120°09'1020.5
2017-Dec-07 17:00N 34°17' W 120°21'1020.3
2017-Dec-07 16:30N 34°20' W 120°32'1020.2
2017-Dec-07 16:00N 34°22' W 120°44'1120.4
2017-Dec-07 15:29N 34°25' W 120°57'1020.9
2017-Dec-07 15:00N 34°33' W 121°03'1021.0
2017-Dec-07 14:30N 34°42' W 121°10'1020.6
2017-Dec-07 14:00N 34°51' W 121°17'1021.0
2017-Dec-07 13:30N 34°60' W 121°23'1020.9
2017-Dec-07 13:00N 35°09' W 121°30'1020.6
2017-Dec-07 12:30N 35°18' W 121°37'1020.7
2017-Dec-07 12:00N 35°26' W 121°43'1020.8
2017-Dec-07 11:30N 35°35' W 121°50'1020.8
2017-Dec-07 11:00N 35°44' W 121°56'1020.8
2017-Dec-07 10:30N 35°53' W 122°03'1020.6
2017-Dec-07 10:00N 36°02' W 122°09'1021.0
2017-Dec-07 09:30N 36°12' W 122°15'1021.0
2017-Dec-07 09:00N 36°21' W 122°20'1121.0
2017-Dec-07 08:30N 36°31' W 122°24'1121.1
2017-Dec-07 08:00N 36°41' W 122°28'1121.4
2017-Dec-07 07:30N 36°51' W 122°32'1121.6
2017-Dec-07 07:00N 37°02' W 122°36'1121.0
2017-Dec-07 06:30N 37°12' W 122°40'1121.1
2017-Dec-07 06:00N 37°22' W 122°44'1121.5
2017-Dec-07 05:30N 37°33' W 122°43'1020.7
2017-Dec-07 05:00N 37°43' W 122°41'612.2
2017-Dec-07 04:30N 37°47' W 122°35'917.4
2017-Dec-07 04:00N 37°50' W 122°25'510.9
2017-Dec-07 03:30N 37°48' W 122°19'1 2.6
2017-Dec-07 03:00N 37°48' W 122°17'1 1.8
2017-Dec-07 02:30N 37°48' W 122°19'0 0.0
2017-Dec-07 02:00N 37°48' W 122°19'0 0.0
2017-Dec-07 01:30N 37°48' W 122°19'0 0.0
2017-Dec-07 01:00N 37°48' W 122°19'0 0.0
2017-Dec-07 00:30N 37°48' W 122°19'0 0.0
2017-Dec-07 00:00N 37°48' W 122°19'0 0.0
2017-Dec-06 23:30N 37°48' W 122°19'0 0.0
2017-Dec-06 23:00N 37°48' W 122°19'0 0.0
2017-Dec-06 22:30N 37°48' W 122°19'0 0.0
2017-Dec-06 22:00N 37°48' W 122°19'0 0.0
2017-Dec-06 21:30N 37°48' W 122°19'0 0.0
2017-Dec-06 21:00N 37°48' W 122°19'206 9.8
2017-Dec-06 00:00N 36°30' W 126°18'47119.6 060 / 61023.510.8 15.610.315.2
2017-Dec-05 00:00N 33°24' W 135°06'15118.9 120 / 251021.310.8 14.410.229.2
2017-Dec-04 16:00N 32°18' W 137°48'8020.0 090 / 331019.010.8 17.812.821.1
2017-Dec-04 12:00N 31°42' W 139°12'37217.7 080 / 251018.510.8 16.712.617.2
2017-Dec-03 15:00N 28°36' W 145°24'4916.2 020 / 351014.310.8 17.814.922.8
2017-Dec-03 12:00N 28°12' W 146°12'20617.2 010 / 351015.010.8
2017-Dec-03 00:00N 26°24' W 149°30'11318.8 030 / 301018.010.8 21.111.222.5
2017-Dec-02 18:00N 25°18' W 151°12'9816.3 060 / 261020.010.8 21.111.224.4
2017-Dec-02 12:00N 24°24' W 152°42'11919.8 060 / 331017.510.8 20.015.322.1
2017-Dec-02 06:00N 23°18' W 154°30'10217.1 060 / 301019.010.8 22.218.726.1
2017-Dec-02 00:00N 22°18' W 156°00'   070 / 231015.510.8 23.319.121.2

Dump ship's entire track history